Time;durP1;ratioP1;P1;durP2;ratioP2;P2;SDS_P1;SDS_P2;PMS_P1;PMS_P2;Temp;Humidity;BMP_temperature;BMP_pressure;BME280_temperature;BME280_humidity;BME280_pressure;Samples;Min_cycle;Max_cycle;Signal;HPM_P1;HPM_P2
2023/01/19 00:00:19;;;;;;;5.60;3.20;;;2.80;99.90;;;;;;5069226;28;20209;-74
2023/01/19 00:02:46;;;;;;;4.40;3.50;;;2.70;99.90;;;;;;5076937;28;20211;-74
2023/01/19 00:05:15;;;;;;;3.67;3.10;;;2.70;99.90;;;;;;5094296;28;20186;-75
2023/01/19 00:07:40;;;;;;;3.47;2.90;;;2.70;99.90;;;;;;5076654;28;20176;-75
2023/01/19 00:10:09;;;;;;;4.10;3.20;;;2.70;99.90;;;;;;5062249;28;20207;-76
2023/01/19 00:12:37;;;;;;;4.40;3.40;;;2.60;99.90;;;;;;5073731;28;20188;-75
2023/01/19 00:15:03;;;;;;;5.00;3.77;;;2.60;99.90;;;;;;5079941;28;20168;-75
2023/01/19 00:17:29;;;;;;;5.30;3.80;;;2.60;99.90;;;;;;5080529;28;20249;-74
2023/01/19 00:19:57;;;;;;;5.43;3.93;;;2.60;99.90;;;;;;5060713;28;20192;-76
2023/01/19 00:22:23;;;;;;;4.47;3.67;;;2.60;99.90;;;;;;5060769;28;20200;-73
2023/01/19 00:24:50;;;;;;;6.13;4.20;;;2.60;99.90;;;;;;5077229;28;20202;-75
2023/01/19 00:27:18;;;;;;;5.20;4.00;;;2.60;99.90;;;;;;5080626;28;20172;-75
2023/01/19 00:29:46;;;;;;;7.23;4.10;;;2.60;99.90;;;;;;5080566;28;20223;-74
2023/01/19 00:32:16;;;;;;;5.77;4.30;;;2.60;99.90;;;;;;5080568;28;20172;-74
2023/01/19 00:34:48;;;;;;;5.63;4.30;;;2.60;99.90;;;;;;5078417;28;20430;-75
2023/01/19 00:37:14;;;;;;;6.57;4.07;;;2.60;99.90;;;;;;5060126;28;20216;-76
2023/01/19 00:39:39;;;;;;;4.80;3.80;;;2.60;99.90;;;;;;5060512;28;20198;-75
2023/01/19 00:44:49;;;;;;;5.90;4.20;;;2.60;99.90;;;;;;5077656;28;20203;-74
2023/01/19 00:47:15;;;;;;;6.13;4.23;;;2.60;99.90;;;;;;5078341;28;20168;-76
2023/01/19 00:49:43;;;;;;;5.20;4.10;;;2.60;99.90;;;;;;5080195;28;20206;-75
2023/01/19 00:52:09;;;;;;;4.87;3.90;;;2.70;99.90;;;;;;5079924;28;20211;-74
2023/01/19 00:54:35;;;;;;;6.13;4.20;;;2.60;99.90;;;;;;5077715;28;20263;-75
2023/01/19 00:57:02;;;;;;;5.70;4.10;;;2.60;99.90;;;;;;5060448;28;20291;-72
2023/01/19 00:59:27;;;;;;;4.70;3.60;;;2.60;99.90;;;;;;5059723;28;20188;-75
2023/01/19 01:01:58;;;;;;;5.70;3.70;;;2.60;99.90;;;;;;5069010;28;20168;-74
2023/01/19 01:04:23;;;;;;;4.53;3.20;;;2.60;99.90;;;;;;5079729;28;20172;-75
2023/01/19 01:06:51;;;;;;;4.20;3.63;;;2.60;99.90;;;;;;5080006;28;20168;-75
2023/01/19 01:09:16;;;;;;;5.77;3.83;;;2.60;99.90;;;;;;5079646;28;20180;-75
2023/01/19 01:11:45;;;;;;;5.67;4.13;;;2.60;99.90;;;;;;5080096;28;20172;-72
2023/01/19 01:14:14;;;;;;;4.97;3.53;;;2.60;99.90;;;;;;5079744;28;20183;-75
2023/01/19 01:16:40;;;;;;;4.47;3.60;;;2.60;99.90;;;;;;5079611;28;20207;-74
2023/01/19 01:19:11;;;;;;;4.03;3.53;;;2.60;99.90;;;;;;5079860;28;20182;-75
2023/01/19 01:21:39;;;;;;;4.80;3.70;;;2.60;99.90;;;;;;5071807;28;20180;-74
2023/01/19 01:24:05;;;;;;;4.20;3.23;;;2.60;99.90;;;;;;5078961;28;20504;-74
2023/01/19 01:26:33;;;;;;;4.03;3.57;;;2.60;99.90;;;;;;5070583;28;20188;-75
2023/01/19 01:29:01;;;;;;;5.33;3.40;;;2.50;99.90;;;;;;5059371;28;20188;-75
2023/01/19 01:31:27;;;;;;;4.17;3.50;;;2.60;99.90;;;;;;5070188;28;20204;-75
2023/01/19 01:33:52;;;;;;;5.37;3.37;;;2.50;99.90;;;;;;5079487;28;20233;-75
2023/01/19 01:36:19;;;;;;;4.97;3.90;;;2.60;99.90;;;;;;5079377;28;20207;-75
2023/01/19 01:38:45;;;;;;;3.67;2.87;;;2.60;99.90;;;;;;5079307;28;20270;-74
2023/01/19 01:41:13;;;;;;;3.97;3.10;;;2.60;99.90;;;;;;5079374;28;20255;-73
2023/01/19 01:43:47;;;;;;;3.67;2.83;;;2.60;99.90;;;;;;5096673;28;20335;-74
2023/01/19 01:46:16;;;;;;;3.93;3.03;;;2.60;99.90;;;;;;5079175;28;20186;-75
2023/01/19 01:49:13;;;;;;;3.77;3.20;;;2.50;99.90;;;;;;5079294;28;20203;-75
2023/01/19 01:51:53;;;;;;;4.97;3.20;;;2.60;99.90;;;;;;5096092;28;20179;-74
2023/01/19 01:54:27;;;;;;;3.43;2.80;;;2.60;99.90;;;;;;5068538;28;20210;-75
2023/01/19 01:56:56;;;;;;;3.33;2.70;;;2.60;99.90;;;;;;5058817;28;20438;-75
2023/01/19 01:59:26;;;;;;;5.37;3.50;;;2.70;99.90;;;;;;5070347;28;20176;-75
2023/01/19 02:04:46;;;;;;;3.47;2.73;;;2.60;99.90;;;;;;5096548;28;20183;-75
2023/01/19 02:15:33;;;;;;;3.67;3.00;;;2.60;99.90;;;;;;5096553;28;20417;-74
2023/01/19 02:17:59;;;;;;;6.30;3.33;;;2.60;99.90;;;;;;5078223;28;20203;-72
2023/01/19 02:20:30;;;;;;;4.23;3.20;;;2.60;99.90;;;;;;5083211;28;20176;-75
2023/01/19 02:23:05;;;;;;;4.00;3.13;;;2.70;99.90;;;;;;5076505;28;20176;-72
2023/01/19 02:25:31;;;;;;;3.43;2.73;;;2.60;99.90;;;;;;5108638;28;20178;-73
2023/01/19 02:28:02;;;;;;;4.57;3.10;;;2.60;99.90;;;;;;5083997;28;20311;-73
2023/01/19 02:30:28;;;;;;;4.37;3.10;;;2.60;99.90;;;;;;5069031;28;20179;-76
2023/01/19 02:32:53;;;;;;;4.63;3.00;;;2.60;99.90;;;;;;5079011;28;20182;-77
2023/01/19 02:35:23;;;;;;;3.77;2.73;;;2.60;99.90;;;;;;5064775;28;20186;-75
2023/01/19 02:37:50;;;;;;;5.57;3.10;;;2.60;99.90;;;;;;5076795;28;20176;-74
2023/01/19 02:40:20;;;;;;;3.87;2.67;;;2.70;99.90;;;;;;5080846;28;20164;-74
2023/01/19 02:42:51;;;;;;;4.57;3.50;;;2.70;99.90;;;;;;5076016;28;20230;-74
2023/01/19 02:45:21;;;;;;;4.90;3.30;;;2.70;99.90;;;;;;5078136;28;20175;-75
2023/01/19 02:47:53;;;;;;;5.77;3.37;;;2.80;99.90;;;;;;5074793;28;20196;-76
2023/01/19 02:50:40;;;;;;;3.90;2.90;;;2.80;99.90;;;;;;5089743;28;20192;-76
2023/01/19 02:53:28;;;;;;;4.37;2.97;;;2.80;99.90;;;;;;5077746;28;20168;-73
2023/01/19 02:56:07;;;;;;;4.40;3.17;;;2.90;99.90;;;;;;5073337;28;20192;-75
2023/01/19 02:58:41;;;;;;;4.17;2.80;;;2.90;99.90;;;;;;5077755;28;20195;-76
2023/01/19 03:01:25;;;;;;;4.57;2.70;;;2.90;99.90;;;;;;5076165;28;20217;-76
2023/01/19 03:04:03;;;;;;;3.30;2.77;;;3.00;99.90;;;;;;5089076;28;20174;-75
2023/01/19 03:06:48;;;;;;;4.23;2.77;;;3.00;99.90;;;;;;5077929;28;20195;-76
2023/01/19 03:09:48;;;;;;;5.10;3.13;;;3.00;99.90;;;;;;5081220;28;20439;-74
2023/01/19 03:12:32;;;;;;;3.83;2.90;;;3.00;99.90;;;;;;5074353;28;20176;-74
2023/01/19 03:15:06;;;;;;;3.67;3.10;;;3.00;99.90;;;;;;5078419;28;20283;-77
2023/01/19 03:17:33;;;;;;;4.43;2.97;;;3.10;99.90;;;;;;5093580;28;20271;-75
2023/01/19 03:20:01;;;;;;;4.83;2.70;;;3.10;99.90;;;;;;5068890;28;20182;-74
2023/01/19 03:22:28;;;;;;;4.27;3.10;;;3.10;99.90;;;;;;5086616;28;20207;-75
2023/01/19 03:25:00;;;;;;;3.40;2.80;;;3.10;99.90;;;;;;5075972;28;20179;-74
2023/01/19 03:27:30;;;;;;;3.53;2.80;;;3.10;99.90;;;;;;5077101;28;20172;-75
2023/01/19 03:30:17;;;;;;;4.30;2.80;;;3.10;99.90;;;;;;5087677;28;20219;-74
2023/01/19 03:32:58;;;;;;;4.13;2.60;;;3.10;99.90;;;;;;5079244;28;20263;-73
2023/01/19 03:35:30;;;;;;;4.57;2.97;;;3.10;99.90;;;;;;5076417;28;20512;-74
2023/01/19 03:37:59;;;;;;;3.23;2.50;;;3.10;99.90;;;;;;5076872;28;20180;-74
2023/01/19 03:40:28;;;;;;;3.87;2.70;;;3.20;99.90;;;;;;5077336;28;20206;-75
2023/01/19 03:42:54;;;;;;;3.63;2.93;;;3.20;99.90;;;;;;5082395;28;20235;-76
2023/01/19 03:45:24;;;;;;;3.80;2.73;;;3.10;99.90;;;;;;5088018;28;20206;-74
2023/01/19 03:47:50;;;;;;;3.97;2.80;;;3.10;99.90;;;;;;5076267;28;20180;-75
2023/01/19 03:50:27;;;;;;;3.40;2.80;;;3.20;99.90;;;;;;5077211;28;20174;-74
2023/01/19 03:53:14;;;;;;;3.17;2.60;;;3.10;99.90;;;;;;5076904;28;20205;-75
2023/01/19 03:55:46;;;;;;;3.30;2.70;;;3.10;99.90;;;;;;5076700;28;20176;-75
2023/01/19 03:58:12;;;;;;;3.50;2.60;;;3.10;99.90;;;;;;5076633;28;20180;-75
2023/01/19 04:00:38;;;;;;;3.20;2.73;;;3.10;99.90;;;;;;5076873;28;20187;-75
2023/01/19 04:03:04;;;;;;;3.73;2.60;;;3.10;99.90;;;;;;5077198;28;20195;-75
2023/01/19 04:05:31;;;;;;;4.77;3.10;;;3.00;99.90;;;;;;5077436;28;20419;-75
2023/01/19 04:07:56;;;;;;;4.50;3.70;;;3.00;99.90;;;;;;5076906;28;20168;-75
2023/01/19 04:10:24;;;;;;;4.67;3.50;;;3.00;99.90;;;;;;5077024;28;20233;-76
2023/01/19 04:12:59;;;;;;;5.17;3.90;;;3.00;99.90;;;;;;5076899;28;20215;-73
2023/01/19 04:15:27;;;;;;;4.23;3.40;;;3.00;99.90;;;;;;5076841;28;20259;-74
2023/01/19 04:17:58;;;;;;;4.43;3.70;;;2.90;99.90;;;;;;5076171;28;20270;-73
2023/01/19 04:20:26;;;;;;;4.77;3.47;;;2.90;99.90;;;;;;5077017;28;20477;-74
2023/01/19 04:22:53;;;;;;;5.07;3.77;;;2.90;99.90;;;;;;5073328;28;20180;-75
2023/01/19 04:25:19;;;;;;;4.57;3.57;;;3.00;99.90;;;;;;5076892;28;20267;-74
2023/01/19 04:27:53;;;;;;;4.30;3.37;;;2.90;99.90;;;;;;5076400;28;20264;-75
2023/01/19 04:30:22;;;;;;;5.23;3.60;;;2.90;99.90;;;;;;5076631;28;20168;-74
2023/01/19 04:32:47;;;;;;;6.47;3.77;;;2.90;99.90;;;;;;5076710;28;20183;-72
2023/01/19 04:35:15;;;;;;;4.57;3.30;;;3.00;99.90;;;;;;5076894;28;20202;-75
2023/01/19 04:37:41;;;;;;;5.03;3.50;;;3.00;99.90;;;;;;5076669;28;20195;-74
2023/01/19 04:40:10;;;;;;;4.83;3.50;;;3.00;99.90;;;;;;5058294;28;20279;-77
2023/01/19 04:42:40;;;;;;;5.00;4.00;;;3.10;99.90;;;;;;5056406;28;20200;-74
2023/01/19 04:45:08;;;;;;;6.00;4.10;;;3.10;99.90;;;;;;5058919;28;20212;-75
2023/01/19 04:47:34;;;;;;;4.80;4.13;;;3.10;99.90;;;;;;5056436;28;20180;-76
2023/01/19 04:49:59;;;;;;;5.17;4.00;;;3.20;99.90;;;;;;5062598;28;20253;-75
2023/01/19 04:52:33;;;;;;;5.93;3.87;;;3.20;99.90;;;;;;5076012;28;20200;-74
2023/01/19 04:55:03;;;;;;;5.20;3.93;;;3.20;99.90;;;;;;5076652;28;20180;-74
2023/01/19 04:57:29;;;;;;;4.50;3.80;;;3.20;99.90;;;;;;5076161;28;20203;-75
2023/01/19 04:59:57;;;;;;;5.50;4.10;;;3.30;99.90;;;;;;5072869;28;20180;-76
2023/01/19 05:02:26;;;;;;;5.50;3.77;;;3.40;99.90;;;;;;5075786;28;20196;-75
2023/01/19 05:04:52;;;;;;;3.97;3.40;;;3.30;99.90;;;;;;5079904;28;20207;-74
2023/01/19 05:07:17;;;;;;;5.70;3.73;;;3.30;99.90;;;;;;5079918;28;20223;-74
2023/01/19 05:09:43;;;;;;;4.23;3.60;;;3.30;99.90;;;;;;5076266;28;20179;-75
2023/01/19 05:12:14;;;;;;;4.67;3.87;;;3.40;99.90;;;;;;5078310;28;20184;-75
2023/01/19 05:14:42;;;;;;;6.03;3.70;;;3.40;99.90;;;;;;5079373;28;20215;-77
2023/01/19 05:17:11;;;;;;;4.53;3.53;;;3.40;99.90;;;;;;5096117;28;20196;-74
2023/01/19 05:19:36;;;;;;;4.13;3.30;;;3.40;99.90;;;;;;5076084;28;20184;-76
2023/01/19 05:22:03;;;;;;;4.77;3.80;;;3.40;99.90;;;;;;5075152;28;20179;-74
2023/01/19 05:24:29;;;;;;;4.30;3.10;;;3.50;99.90;;;;;;5076135;28;20200;-75
2023/01/19 05:26:55;;;;;;;3.63;3.10;;;3.40;99.90;;;;;;5075001;28;20371;-77
2023/01/19 05:29:21;;;;;;;4.47;3.30;;;3.50;99.90;;;;;;5288934;22;20249;-75
2023/01/19 05:31:49;;;;;;;3.90;3.30;;;3.50;99.90;;;;;;5073222;28;20174;-75
2023/01/19 05:34:14;;;;;;;4.70;3.57;;;3.50;99.90;;;;;;5072865;28;20264;-76
2023/01/19 05:36:41;;;;;;;5.10;3.90;;;3.50;99.90;;;;;;5072604;28;20450;-76
2023/01/19 05:39:09;;;;;;;5.57;3.63;;;3.50;99.90;;;;;;5056335;28;20213;-75
2023/01/19 05:41:35;;;;;;;4.13;3.47;;;3.50;99.90;;;;;;5056311;28;20204;-74
2023/01/19 05:44:01;;;;;;;3.80;3.23;;;3.60;99.90;;;;;;5056005;28;20329;-76
2023/01/19 05:46:29;;;;;;;4.00;3.30;;;3.60;99.90;;;;;;5056539;28;20326;-74
2023/01/19 05:48:57;;;;;;;3.60;3.00;;;3.60;99.90;;;;;;5055800;28;20220;-75
2023/01/19 05:51:24;;;;;;;4.27;3.30;;;3.60;99.90;;;;;;5056369;28;20188;-76
2023/01/19 05:53:50;;;;;;;4.20;2.93;;;3.60;99.90;;;;;;5056084;28;20335;-75
2023/01/19 05:56:16;;;;;;;3.60;3.00;;;3.70;99.90;;;;;;5072748;28;20284;-75
2023/01/19 05:58:41;;;;;;;3.83;2.80;;;3.70;99.90;;;;;;5071981;28;20251;-76
2023/01/19 06:01:09;;;;;;;4.77;3.53;;;3.90;99.90;;;;;;5069676;28;20169;-76
2023/01/19 06:03:38;;;;;;;4.57;3.40;;;3.70;99.90;;;;;;5056058;28;20185;-77
2023/01/19 06:06:06;;;;;;;3.70;2.80;;;3.90;99.90;;;;;;5070584;28;20177;-74
2023/01/19 06:08:32;;;;;;;3.87;3.10;;;3.80;99.90;;;;;;5055696;28;20259;-75
2023/01/19 06:11:02;;;;;;;3.60;2.90;;;3.80;99.90;;;;;;5071943;28;20185;-75
2023/01/19 06:13:30;;;;;;;4.53;2.90;;;3.90;99.90;;;;;;5061961;28;20213;-74
2023/01/19 06:15:59;;;;;;;3.70;2.73;;;3.80;99.90;;;;;;5055422;28;20197;-74
2023/01/19 06:18:25;;;;;;;4.30;3.30;;;3.90;99.90;;;;;;5063025;28;20236;-76
2023/01/19 06:20:57;;;;;;;2.93;2.63;;;3.90;99.90;;;;;;5072078;28;20288;-74
2023/01/19 06:23:26;;;;;;;3.67;3.00;;;3.90;99.90;;;;;;5054794;28;20173;-74
2023/01/19 06:25:52;;;;;;;3.83;2.90;;;3.90;99.90;;;;;;5070147;28;20243;-73
2023/01/19 06:28:17;;;;;;;4.37;2.77;;;3.90;99.90;;;;;;5052255;28;20454;-71
2023/01/19 06:30:48;;;;;;;3.80;2.90;;;3.90;99.90;;;;;;5050310;28;20190;-73
2023/01/19 06:33:14;;;;;;;4.90;3.00;;;3.90;99.90;;;;;;5049786;28;20181;-71
2023/01/19 06:35:42;;;;;;;5.33;3.10;;;3.90;99.90;;;;;;5048096;28;20178;-72
2023/01/19 06:38:08;;;;;;;5.67;2.97;;;3.90;99.90;;;;;;5035294;28;20308;-71
2023/01/19 06:40:34;;;;;;;3.63;2.67;;;3.90;99.90;;;;;;5071547;28;20231;-71
2023/01/19 06:43:01;;;;;;;4.27;2.67;;;3.90;99.90;;;;;;5054418;28;20169;-70
2023/01/19 06:45:27;;;;;;;3.07;2.43;;;3.80;99.90;;;;;;5056258;28;20169;-73
2023/01/19 06:47:57;;;;;;;3.30;2.60;;;3.70;99.90;;;;;;5055706;28;20193;-73
2023/01/19 06:50:23;;;;;;;3.73;2.80;;;3.70;99.90;;;;;;5047405;28;20196;-71
2023/01/19 06:52:52;;;;;;;4.47;2.67;;;3.60;99.90;;;;;;5053793;28;20342;-71
2023/01/19 06:55:18;;;;;;;3.30;2.10;;;3.60;99.90;;;;;;5069927;28;20196;-72
2023/01/19 06:57:43;;;;;;;3.73;2.40;;;3.50;99.90;;;;;;5050466;28;20201;-72
2023/01/19 07:00:15;;;;;;;3.13;2.80;;;3.40;99.90;;;;;;5051297;28;20235;-70
2023/01/19 07:02:42;;;;;;;3.07;2.50;;;3.30;99.90;;;;;;5038763;28;20269;-73
2023/01/19 07:05:13;;;;;;;4.60;2.70;;;3.20;99.90;;;;;;5052266;28;20206;-73
2023/01/19 07:07:43;;;;;;;4.73;2.70;;;3.20;99.90;;;;;;5067676;28;20178;-72
2023/01/19 07:10:14;;;;;;;5.57;3.20;;;3.10;99.90;;;;;;5038668;28;20181;-71
2023/01/19 07:12:46;;;;;;;4.60;2.83;;;3.00;99.90;;;;;;5050164;28;20216;-70
2023/01/19 07:15:12;;;;;;;6.73;3.50;;;3.00;99.90;;;;;;5071082;28;20178;-68
2023/01/19 07:17:43;;;;;;;4.83;3.17;;;2.90;99.90;;;;;;5070398;28;20241;-68
2023/01/19 07:20:16;;;;;;;4.13;3.00;;;2.90;99.90;;;;;;5058406;28;20201;-68
2023/01/19 07:22:45;;;;;;;3.90;2.67;;;2.90;99.90;;;;;;5051253;28;20177;-68
2023/01/19 07:25:12;;;;;;;4.20;3.27;;;3.00;99.90;;;;;;5070744;28;20198;-73
2023/01/19 07:27:38;;;;;;;4.77;3.27;;;3.00;99.90;;;;;;5070940;28;20227;-71
2023/01/19 07:30:09;;;;;;;4.43;3.27;;;3.00;99.90;;;;;;5070584;28;20219;-72
2023/01/19 07:32:34;;;;;;;4.97;3.10;;;3.00;99.90;;;;;;5052220;28;20185;-74
2023/01/19 07:35:02;;;;;;;6.33;3.80;;;3.00;99.90;;;;;;5071157;28;20207;-72
2023/01/19 07:37:30;;;;;;;5.07;3.70;;;3.00;99.90;;;;;;5069754;28;20201;-73
2023/01/19 07:39:56;;;;;;;4.73;3.57;;;3.00;99.90;;;;;;5053723;28;20188;-74
2023/01/19 07:42:21;;;;;;;4.40;3.37;;;2.90;99.90;;;;;;5066298;28;20170;-73
2023/01/19 07:44:47;;;;;;;5.77;3.87;;;2.90;99.90;;;;;;5047253;28;20260;-70
2023/01/19 07:47:13;;;;;;;5.53;3.70;;;2.80;99.90;;;;;;5057442;28;20197;-72
2023/01/19 07:49:38;;;;;;;4.97;3.97;;;2.80;99.90;;;;;;5053750;28;20236;-73
2023/01/19 07:52:04;;;;;;;4.77;3.53;;;2.80;99.90;;;;;;5070496;28;20227;-70
2023/01/19 07:54:30;;;;;;;4.00;3.13;;;2.80;99.90;;;;;;5066921;28;20193;-72
2023/01/19 07:56:55;;;;;;;4.90;3.67;;;2.70;99.90;;;;;;5071531;28;20232;-73
2023/01/19 07:59:21;;;;;;;5.57;3.80;;;2.80;99.90;;;;;;5083464;28;20284;-73
2023/01/19 08:01:47;;;;;;;5.97;3.90;;;2.70;99.90;;;;;;5070787;28;20173;-72
2023/01/19 08:04:12;;;;;;;5.13;3.63;;;2.70;99.90;;;;;;5054171;28;20196;-75
2023/01/19 08:06:39;;;;;;;5.00;3.80;;;2.70;99.90;;;;;;5053881;28;20219;-75
2023/01/19 08:09:08;;;;;;;6.37;3.60;;;2.70;99.90;;;;;;5062599;28;20181;-75
2023/01/19 08:11:34;;;;;;;4.83;3.60;;;2.70;99.90;;;;;;5050297;28;20378;-73
2023/01/19 08:14:00;;;;;;;5.50;3.57;;;2.70;99.90;;;;;;5053953;28;20239;-74
2023/01/19 08:16:26;;;;;;;4.50;3.47;;;2.80;99.90;;;;;;5061297;28;20205;-75
2023/01/19 08:18:52;;;;;;;4.97;3.60;;;2.80;99.90;;;;;;5053730;28;20179;-74
2023/01/19 08:21:18;;;;;;;4.97;3.83;;;2.80;99.90;;;;;;5070433;28;20264;-73
2023/01/19 08:23:51;;;;;;;4.47;3.50;;;2.80;99.90;;;;;;5053552;28;20239;-73
2023/01/19 08:26:26;;;;;;;4.73;3.67;;;2.80;99.90;;;;;;5070334;28;20195;-71
2023/01/19 08:28:55;;;;;;;6.17;4.40;;;2.90;99.90;;;;;;5049771;28;20180;-72
2023/01/19 08:31:23;;;;;;;5.20;4.40;;;2.90;99.90;;;;;;5053135;28;20202;-72
2023/01/19 08:33:49;;;;;;;5.90;3.57;;;2.90;99.90;;;;;;5039780;28;20177;-73
2023/01/19 08:36:17;;;;;;;5.07;3.70;;;2.90;99.90;;;;;;5073340;28;20243;-72
2023/01/19 08:38:46;;;;;;;6.47;4.00;;;3.00;99.90;;;;;;5071056;28;20178;-74
2023/01/19 08:41:12;;;;;;;4.97;3.73;;;3.00;99.90;;;;;;5050154;28;20173;-73
2023/01/19 08:43:38;;;;;;;5.17;3.90;;;3.00;99.90;;;;;;5056291;28;20184;-72
2023/01/19 08:46:07;;;;;;;5.87;3.67;;;3.00;99.90;;;;;;5057651;28;20173;-72
2023/01/19 08:48:35;;;;;;;5.03;3.50;;;3.10;99.90;;;;;;5056998;28;20292;-73
2023/01/19 08:51:03;;;;;;;7.53;3.73;;;3.10;99.90;;;;;;5073090;28;20177;-71
2023/01/19 08:53:28;;;;;;;5.47;3.70;;;3.10;99.90;;;;;;5055778;28;20194;-72
2023/01/19 08:55:56;;;;;;;5.70;3.80;;;3.10;99.90;;;;;;5044639;28;20181;-73
2023/01/19 08:58:24;;;;;;;4.97;3.60;;;3.20;99.90;;;;;;5070834;28;20219;-73
2023/01/19 09:00:51;;;;;;;6.47;4.20;;;3.20;99.90;;;;;;5072416;28;20173;-71
2023/01/19 09:03:18;;;;;;;8.67;4.87;;;3.20;99.90;;;;;;5056843;28;20169;-73
2023/01/19 09:05:44;;;;;;;7.23;4.40;;;3.20;99.90;;;;;;5063578;28;20223;-74
2023/01/19 09:08:12;;;;;;;7.03;4.60;;;3.30;99.90;;;;;;5060595;28;20173;-73
2023/01/19 09:10:42;;;;;;;5.47;3.90;;;3.30;99.90;;;;;;5056678;28;20172;-73
2023/01/19 09:13:10;;;;;;;5.20;4.00;;;3.30;99.90;;;;;;5045520;28;20202;-72
2023/01/19 09:15:37;;;;;;;5.80;4.50;;;3.40;99.90;;;;;;5055025;28;20181;-70
2023/01/19 09:18:04;;;;;;;5.83;4.27;;;3.40;99.90;;;;;;5073335;28;20209;-73
2023/01/19 09:20:34;;;;;;;4.63;3.53;;;3.40;99.90;;;;;;5073218;28;20180;-71
2023/01/19 09:23:03;;;;;;;5.37;3.97;;;3.50;99.90;;;;;;5073196;28;20185;-72
2023/01/19 09:25:28;;;;;;;5.93;3.87;;;3.50;99.90;;;;;;5064916;28;20178;-73
2023/01/19 09:27:58;;;;;;;8.23;4.40;;;3.50;99.90;;;;;;5037247;28;20197;-73
2023/01/19 09:30:24;;;;;;;6.10;4.07;;;3.60;99.90;;;;;;5072352;28;20220;-72
2023/01/19 09:32:49;;;;;;;5.00;3.90;;;3.70;99.90;;;;;;5072252;28;20258;-75
2023/01/19 09:35:15;;;;;;;9.77;4.33;;;3.60;99.90;;;;;;5072991;28;20173;-73
2023/01/19 09:37:45;;;;;;;6.13;4.23;;;3.60;99.90;;;;;;5045892;28;20213;-73
2023/01/19 09:40:11;;;;;;;7.83;4.60;;;3.60;99.90;;;;;;5051713;28;20256;-74
2023/01/19 09:42:46;;;;;;;5.33;4.60;;;3.70;99.90;;;;;;5068419;28;20198;-74
2023/01/19 09:45:38;;;;;;;6.77;4.47;;;3.70;99.90;;;;;;5070877;28;20165;-74
2023/01/19 09:48:25;;;;;;;6.03;4.30;;;3.80;99.90;;;;;;5036560;28;20166;-72
2023/01/19 09:50:53;;;;;;;5.97;4.27;;;3.80;99.90;;;;;;5049135;28;20174;-72
2023/01/19 09:53:44;;;;;;;5.13;3.93;;;4.00;99.90;;;;;;5058857;28;20494;-71
2023/01/19 09:56:20;;;;;;;5.23;3.97;;;3.80;99.90;;;;;;5052742;28;20201;-71
2023/01/19 09:58:50;;;;;;;9.77;4.53;;;3.90;99.90;;;;;;5083298;28;20172;-74
2023/01/19 10:01:34;;;;;;;9.37;4.77;;;3.90;99.90;;;;;;5082353;28;20194;-73
2023/01/19 10:04:30;;;;;;;6.80;4.57;;;3.90;99.90;;;;;;5038269;28;20185;-72
2023/01/19 10:07:14;;;;;;;6.27;4.17;;;3.90;99.90;;;;;;5055529;28;20185;-72
2023/01/19 10:09:47;;;;;;;5.93;3.90;;;4.00;99.90;;;;;;5055735;28;20187;-71
2023/01/19 10:12:53;;;;;;;4.83;3.70;;;4.00;99.90;;;;;;5055280;28;20177;-70
2023/01/19 10:15:55;;;;;;;4.50;3.50;;;4.00;99.90;;;;;;5037367;28;20182;-72
2023/01/19 10:18:35;;;;;;;4.30;3.63;;;4.00;99.90;;;;;;5049722;28;20189;-74
2023/01/19 10:21:09;;;;;;;6.50;4.53;;;4.00;99.90;;;;;;5054257;28;20221;-72
2023/01/19 10:23:43;;;;;;;6.23;4.07;;;4.00;99.90;;;;;;5055302;28;20177;-71
2023/01/19 10:26:46;;;;;;;5.73;3.97;;;4.10;99.90;;;;;;5063432;28;20250;-71
2023/01/19 10:29:27;;;;;;;7.87;4.57;;;4.10;99.90;;;;;;5051051;28;20204;-72
2023/01/19 10:32:08;;;;;;;6.40;4.47;;;4.10;99.90;;;;;;5066037;28;20173;-72
2023/01/19 10:34:34;;;;;;;7.07;4.73;;;4.10;99.90;;;;;;5056970;28;20189;-72
2023/01/19 10:37:23;;;;;;;7.60;5.33;;;4.10;99.90;;;;;;5047317;28;20254;-74
2023/01/19 10:40:18;;;;;;;7.03;4.73;;;4.10;99.90;;;;;;5065176;28;20205;-72
2023/01/19 10:42:46;;;;;;;6.77;4.57;;;4.20;99.90;;;;;;5050840;28;20199;-73
2023/01/19 10:45:23;;;;;;;8.63;4.93;;;4.20;99.90;;;;;;5073546;28;20200;-73
2023/01/19 10:47:53;;;;;;;8.17;4.77;;;4.20;99.90;;;;;;5059755;28;20240;-74
2023/01/19 10:50:27;;;;;;;6.10;4.30;;;4.20;99.90;;;;;;5071316;28;20172;-74
2023/01/19 10:52:56;;;;;;;8.57;4.73;;;4.20;99.90;;;;;;5061220;28;20272;-73
2023/01/19 10:55:29;;;;;;;6.27;4.77;;;4.30;99.90;;;;;;5070254;28;20181;-73
2023/01/19 10:57:56;;;;;;;8.70;4.90;;;4.30;99.90;;;;;;5062695;28;20405;-72
2023/01/19 11:00:37;;;;;;;7.70;4.83;;;4.30;99.90;;;;;;5054653;28;20165;-73
2023/01/19 11:03:29;;;;;;;8.57;5.07;;;4.30;99.90;;;;;;5053190;28;20205;-74
2023/01/19 11:06:22;;;;;;;7.47;4.50;;;4.40;99.90;;;;;;5071798;28;20197;-73
2023/01/19 11:08:50;;;;;;;7.60;4.90;;;4.40;99.90;;;;;;5053734;28;20289;-73
2023/01/19 11:11:18;;;;;;;7.93;5.10;;;4.40;99.90;;;;;;5053841;28;20186;-74
2023/01/19 11:13:44;;;;;;;6.00;4.60;;;4.50;99.90;;;;;;5066017;28;20264;-73
2023/01/19 11:16:33;;;;;;;7.00;4.80;;;4.50;99.90;;;;;;5069471;28;20277;-74
2023/01/19 11:19:02;;;;;;;8.90;5.13;;;4.40;99.90;;;;;;5069738;28;20180;-71
2023/01/19 11:21:34;;;;;;;11.23;5.90;;;4.50;99.90;;;;;;5048308;28;20192;-70
2023/01/19 11:24:04;;;;;;;6.63;4.60;;;4.60;99.90;;;;;;5054545;28;20201;-71
2023/01/19 11:26:42;;;;;;;7.07;5.03;;;4.60;99.90;;;;;;5053929;28;20192;-71
2023/01/19 11:29:26;;;;;;;7.20;5.10;;;4.60;99.90;;;;;;5070332;28;20298;-71
2023/01/19 11:31:56;;;;;;;8.40;5.13;;;4.60;99.90;;;;;;5061750;28;20185;-70
2023/01/19 11:34:31;;;;;;;6.80;5.17;;;4.70;99.90;;;;;;5053749;28;20188;-75
2023/01/19 11:37:02;;;;;;;5.73;4.80;;;4.70;99.90;;;;;;5070280;28;20203;-72
2023/01/19 11:39:46;;;;;;;8.20;5.17;;;4.80;99.90;;;;;;5052903;28;20173;-74
2023/01/19 11:42:20;;;;;;;8.17;5.00;;;4.80;99.90;;;;;;5036825;28;20225;-73
2023/01/19 11:44:56;;;;;;;9.40;5.43;;;4.90;99.90;;;;;;5054164;28;20269;-72
2023/01/19 11:47:51;;;;;;;7.37;5.17;;;4.90;99.90;;;;;;5054051;28;20193;-71
2023/01/19 11:50:29;;;;;;;8.60;4.90;;;4.90;99.90;;;;;;5049442;28;20181;-70
2023/01/19 11:53:28;;;;;;;7.17;4.03;;;5.00;99.90;;;;;;5055255;28;20184;-72
2023/01/19 11:56:10;;;;;;;5.90;4.40;;;5.00;99.90;;;;;;5050505;28;20264;-72
2023/01/19 11:58:42;;;;;;;8.63;5.23;;;5.10;99.90;;;;;;5053891;28;20262;-73
2023/01/19 12:01:28;;;;;;;7.27;5.40;;;5.10;99.90;;;;;;5062907;28;20182;-73
2023/01/19 12:04:16;;;;;;;9.90;5.03;;;5.20;99.90;;;;;;5052678;28;20161;-72
2023/01/19 12:06:50;;;;;;;7.43;4.27;;;5.20;99.90;;;;;;5053762;28;20219;-72
2023/01/19 12:09:33;;;;;;;9.07;4.80;;;5.30;99.90;;;;;;5052123;28;20173;-72
2023/01/19 12:12:09;;;;;;;6.67;4.67;;;5.30;99.90;;;;;;5063735;28;20232;-71
2023/01/19 12:14:51;;;;;;;9.73;5.50;;;5.40;99.90;;;;;;5049715;28;20181;-72
2023/01/19 12:17:25;;;;;;;8.17;4.77;;;5.60;99.90;;;;;;5057308;28;20208;-72
2023/01/19 12:20:06;;;;;;;8.07;5.50;;;5.80;99.90;;;;;;5042856;28;20174;-72
2023/01/19 12:22:39;;;;;;;9.03;5.03;;;6.00;99.90;;;;;;5053020;28;20252;-73
2023/01/19 12:25:23;;;;;;;10.93;5.93;;;6.30;99.90;;;;;;5058244;28;20251;-72
2023/01/19 12:27:53;;;;;;;12.60;5.13;;;6.60;99.90;;;;;;5057106;28;20173;-72
2023/01/19 12:30:23;;;;;;;10.97;5.33;;;6.80;99.90;;;;;;5057068;28;20213;-73
2023/01/19 12:32:55;;;;;;;10.37;4.37;;;7.30;99.90;;;;;;5074336;28;20209;-71
2023/01/19 12:35:55;;;;;;;7.80;4.47;;;7.30;99.90;;;;;;5057101;28;20202;-71
2023/01/19 12:38:36;;;;;;;9.83;4.17;;;7.50;99.90;;;;;;5053071;28;20177;-73
2023/01/19 12:41:24;;;;;;;8.70;4.53;;;7.70;99.90;;;;;;5045925;28;20158;-72
2023/01/19 12:44:08;;;;;;;8.97;4.60;;;7.80;99.90;;;;;;5049815;28;20186;-72
2023/01/19 12:46:38;;;;;;;5.97;3.70;;;7.90;99.90;;;;;;5071777;28;20177;-72
2023/01/19 12:49:03;;;;;;;9.83;4.43;;;8.00;99.90;;;;;;5040848;28;20177;-72
2023/01/19 12:51:29;;;;;;;6.37;3.60;;;8.00;99.90;;;;;;5054325;28;20184;-72
2023/01/19 12:53:58;;;;;;;7.57;3.87;;;8.10;99.90;;;;;;5053225;28;20173;-74
2023/01/19 12:56:34;;;;;;;6.43;3.60;;;8.10;99.90;;;;;;5064154;28;20198;-71
2023/01/19 12:59:00;;;;;;;9.93;3.93;;;8.10;99.90;;;;;;5047024;28;20259;-72
2023/01/19 13:01:26;;;;;;;7.77;3.90;;;8.10;99.90;;;;;;5045502;28;20190;-72
2023/01/19 13:04:08;;;;;;;7.53;3.93;;;8.00;99.90;;;;;;5053416;28;20181;-72
2023/01/19 13:06:45;;;;;;;6.33;3.23;;;7.90;99.90;;;;;;5054891;28;20173;-70
2023/01/19 13:09:34;;;;;;;10.03;3.80;;;7.80;99.90;;;;;;5056288;28;20212;-74
2023/01/19 13:12:18;;;;;;;6.13;3.37;;;7.60;99.90;;;;;;5053617;28;20170;-68
2023/01/19 13:14:45;;;;;;;5.80;3.23;;;7.40;99.90;;;;;;5041963;28;20219;-72
2023/01/19 13:17:30;;;;;;;7.17;3.70;;;7.30;99.90;;;;;;5061400;28;20196;-72
2023/01/19 13:20:15;;;;;;;7.07;4.13;;;7.20;99.90;;;;;;5052881;28;20186;-72
2023/01/19 13:23:11;;;;;;;9.83;3.80;;;7.10;99.90;;;;;;5033857;28;20195;-72
2023/01/19 13:25:40;;;;;;;7.77;3.40;;;7.00;99.90;;;;;;5072975;28;20176;-71
2023/01/19 13:28:12;;;;;;;6.57;3.40;;;7.00;99.90;;;;;;5073248;28;20197;-73
2023/01/19 13:30:56;;;;;;;7.97;3.70;;;7.00;99.90;;;;;;5056783;28;20195;-72
2023/01/19 13:33:26;;;;;;;6.97;3.63;;;6.90;99.90;;;;;;5068521;28;20185;-73